sensor_id;sensor_type;location;lat;lon;timestamp;P1;durP1;ratioP1;P2;durP2;ratioP2
19903;SDS011;10114;50.970;4.962;2023-02-19T00:01:41;16.63;;;7.82;;
19903;SDS011;10114;50.970;4.962;2023-02-19T00:06:34;13.38;;;6.32;;
19903;SDS011;10114;50.970;4.962;2023-02-19T00:09:01;14.05;;;7.32;;
19903;SDS011;10114;50.970;4.962;2023-02-19T00:11:28;13.43;;;7.20;;
19903;SDS011;10114;50.970;4.962;2023-02-19T00:13:55;13.88;;;6.90;;
19903;SDS011;10114;50.970;4.962;2023-02-19T00:16:25;15.35;;;6.40;;
19903;SDS011;10114;50.970;4.962;2023-02-19T00:18:51;15.27;;;7.43;;
19903;SDS011;10114;50.970;4.962;2023-02-19T00:21:18;11.80;;;6.28;;
19903;SDS011;10114;50.970;4.962;2023-02-19T00:23:54;12.85;;;6.30;;
19903;SDS011;10114;50.970;4.962;2023-02-19T00:26:21;13.73;;;6.65;;
19903;SDS011;10114;50.970;4.962;2023-02-19T00:28:47;13.38;;;6.43;;
19903;SDS011;10114;50.970;4.962;2023-02-19T00:33:40;13.30;;;6.50;;
19903;SDS011;10114;50.970;4.962;2023-02-19T00:36:06;13.35;;;5.90;;
19903;SDS011;10114;50.970;4.962;2023-02-19T00:38:34;13.65;;;5.68;;
19903;SDS011;10114;50.970;4.962;2023-02-19T00:41:01;12.52;;;5.85;;
19903;SDS011;10114;50.970;4.962;2023-02-19T00:43:43;13.45;;;6.30;;
19903;SDS011;10114;50.970;4.962;2023-02-19T00:46:09;12.85;;;6.53;;
19903;SDS011;10114;50.970;4.962;2023-02-19T00:48:35;12.35;;;6.13;;
19903;SDS011;10114;50.970;4.962;2023-02-19T00:51:01;12.45;;;6.53;;
19903;SDS011;10114;50.970;4.962;2023-02-19T00:53:28;19.05;;;6.75;;
19903;SDS011;10114;50.970;4.962;2023-02-19T00:55:54;21.52;;;8.00;;
19903;SDS011;10114;50.970;4.962;2023-02-19T00:58:20;18.38;;;7.53;;
19903;SDS011;10114;50.970;4.962;2023-02-19T01:00:46;19.15;;;7.85;;
19903;SDS011;10114;50.970;4.962;2023-02-19T01:03:12;17.15;;;7.35;;
19903;SDS011;10114;50.970;4.962;2023-02-19T01:05:38;16.25;;;7.90;;
19903;SDS011;10114;50.970;4.962;2023-02-19T01:08:04;18.50;;;8.05;;
19903;SDS011;10114;50.970;4.962;2023-02-19T01:10:30;16.63;;;7.50;;
19903;SDS011;10114;50.970;4.962;2023-02-19T01:12:56;18.88;;;8.82;;
19903;SDS011;10114;50.970;4.962;2023-02-19T01:15:22;18.35;;;7.82;;
19903;SDS011;10114;50.970;4.962;2023-02-19T01:17:48;17.45;;;8.85;;
19903;SDS011;10114;50.970;4.962;2023-02-19T01:20:14;24.42;;;9.30;;
19903;SDS011;10114;50.970;4.962;2023-02-19T01:22:40;20.02;;;8.55;;
19903;SDS011;10114;50.970;4.962;2023-02-19T01:25:06;18.45;;;8.60;;
19903;SDS011;10114;50.970;4.962;2023-02-19T01:27:32;21.75;;;9.02;;
19903;SDS011;10114;50.970;4.962;2023-02-19T01:29:58;23.33;;;9.30;;
19903;SDS011;10114;50.970;4.962;2023-02-19T01:32:24;20.63;;;8.68;;
19903;SDS011;10114;50.970;4.962;2023-02-19T01:34:50;20.33;;;8.55;;
19903;SDS011;10114;50.970;4.962;2023-02-19T01:37:16;22.73;;;8.50;;
19903;SDS011;10114;50.970;4.962;2023-02-19T01:39:42;20.23;;;8.00;;
19903;SDS011;10114;50.970;4.962;2023-02-19T01:42:12;15.98;;;7.72;;
19903;SDS011;10114;50.970;4.962;2023-02-19T01:47:04;25.88;;;8.93;;
19903;SDS011;10114;50.970;4.962;2023-02-19T01:49:32;15.43;;;8.25;;
19903;SDS011;10114;50.970;4.962;2023-02-19T01:52:05;13.30;;;6.80;;
19903;SDS011;10114;50.970;4.962;2023-02-19T01:54:35;25.15;;;7.85;;
19903;SDS011;10114;50.970;4.962;2023-02-19T01:57:05;16.10;;;6.88;;
19903;SDS011;10114;50.970;4.962;2023-02-19T01:59:32;19.75;;;7.97;;
19903;SDS011;10114;50.970;4.962;2023-02-19T02:01:59;19.88;;;8.00;;
19903;SDS011;10114;50.970;4.962;2023-02-19T02:04:25;18.13;;;7.40;;
19903;SDS011;10114;50.970;4.962;2023-02-19T02:06:53;16.85;;;7.55;;
19903;SDS011;10114;50.970;4.962;2023-02-19T02:09:20;15.55;;;6.85;;
19903;SDS011;10114;50.970;4.962;2023-02-19T02:12:06;18.63;;;7.70;;
19903;SDS011;10114;50.970;4.962;2023-02-19T02:14:33;19.95;;;6.55;;
19903;SDS011;10114;50.970;4.962;2023-02-19T02:22:29;15.40;;;6.60;;
19903;SDS011;10114;50.970;4.962;2023-02-19T02:27:40;15.50;;;6.18;;
19903;SDS011;10114;50.970;4.962;2023-02-19T02:32:37;17.13;;;6.35;;
19903;SDS011;10114;50.970;4.962;2023-02-19T02:35:07;13.38;;;5.80;;
19903;SDS011;10114;50.970;4.962;2023-02-19T02:37:34;13.55;;;5.65;;
19903;SDS011;10114;50.970;4.962;2023-02-19T02:40:02;16.90;;;5.22;;
19903;SDS011;10114;50.970;4.962;2023-02-19T02:42:28;12.98;;;5.40;;
19903;SDS011;10114;50.970;4.962;2023-02-19T02:44:55;11.18;;;4.82;;
19903;SDS011;10114;50.970;4.962;2023-02-19T02:47:45;20.38;;;4.93;;
19903;SDS011;10114;50.970;4.962;2023-02-19T02:50:35;15.20;;;4.65;;
19903;SDS011;10114;50.970;4.962;2023-02-19T02:53:00;17.67;;;4.22;;
19903;SDS011;10114;50.970;4.962;2023-02-19T02:55:46;16.17;;;4.22;;
19903;SDS011;10114;50.970;4.962;2023-02-19T02:58:14;14.57;;;3.40;;
19903;SDS011;10114;50.970;4.962;2023-02-19T03:00:41;11.05;;;3.65;;
19903;SDS011;10114;50.970;4.962;2023-02-19T03:03:26;14.88;;;2.90;;
19903;SDS011;10114;50.970;4.962;2023-02-19T03:05:55;16.00;;;3.55;;
19903;SDS011;10114;50.970;4.962;2023-02-19T03:08:30;12.05;;;3.05;;
19903;SDS011;10114;50.970;4.962;2023-02-19T03:13:45;7.25;;;2.90;;
19903;SDS011;10114;50.970;4.962;2023-02-19T03:16:31;14.55;;;2.95;;
19903;SDS011;10114;50.970;4.962;2023-02-19T03:19:18;12.55;;;2.78;;
19903;SDS011;10114;50.970;4.962;2023-02-19T03:21:46;14.82;;;2.95;;
19903;SDS011;10114;50.970;4.962;2023-02-19T03:24:14;13.82;;;3.35;;
19903;SDS011;10114;50.970;4.962;2023-02-19T03:27:16;10.13;;;2.60;;
19903;SDS011;10114;50.970;4.962;2023-02-19T03:29:44;13.93;;;2.50;;
19903;SDS011;10114;50.970;4.962;2023-02-19T03:32:15;8.63;;;2.22;;
19903;SDS011;10114;50.970;4.962;2023-02-19T03:34:43;10.65;;;2.75;;
19903;SDS011;10114;50.970;4.962;2023-02-19T03:37:15;12.55;;;2.72;;
19903;SDS011;10114;50.970;4.962;2023-02-19T03:39:43;9.45;;;2.33;;
19903;SDS011;10114;50.970;4.962;2023-02-19T03:44:53;9.10;;;2.30;;
19903;SDS011;10114;50.970;4.962;2023-02-19T03:50:23;12.70;;;2.60;;
19903;SDS011;10114;50.970;4.962;2023-02-19T03:53:04;10.93;;;2.42;;
19903;SDS011;10114;50.970;4.962;2023-02-19T03:55:46;14.13;;;2.40;;
19903;SDS011;10114;50.970;4.962;2023-02-19T03:58:17;8.68;;;2.08;;
19903;SDS011;10114;50.970;4.962;2023-02-19T04:00:52;9.95;;;2.17;;
19903;SDS011;10114;50.970;4.962;2023-02-19T04:03:24;9.60;;;2.30;;
19903;SDS011;10114;50.970;4.962;2023-02-19T04:05:54;9.52;;;2.22;;
19903;SDS011;10114;50.970;4.962;2023-02-19T04:08:21;11.05;;;2.38;;
19903;SDS011;10114;50.970;4.962;2023-02-19T04:10:48;10.55;;;2.03;;
19903;SDS011;10114;50.970;4.962;2023-02-19T04:13:22;12.75;;;2.15;;
19903;SDS011;10114;50.970;4.962;2023-02-19T04:15:50;9.85;;;2.35;;
19903;SDS011;10114;50.970;4.962;2023-02-19T04:18:18;8.93;;;2.40;;
19903;SDS011;10114;50.970;4.962;2023-02-19T04:20:46;8.05;;;2.03;;
19903;SDS011;10114;50.970;4.962;2023-02-19T04:23:13;10.23;;;2.17;;
19903;SDS011;10114;50.970;4.962;2023-02-19T04:25:43;10.80;;;1.98;;
19903;SDS011;10114;50.970;4.962;2023-02-19T04:28:10;11.70;;;2.50;;
19903;SDS011;10114;50.970;4.962;2023-02-19T04:30:37;11.73;;;1.80;;
19903;SDS011;10114;50.970;4.962;2023-02-19T04:33:03;8.75;;;1.90;;
19903;SDS011;10114;50.970;4.962;2023-02-19T04:35:30;8.60;;;2.03;;
19903;SDS011;10114;50.970;4.962;2023-02-19T04:37:56;10.00;;;1.83;;
19903;SDS011;10114;50.970;4.962;2023-02-19T04:40:22;10.80;;;1.98;;
19903;SDS011;10114;50.970;4.962;2023-02-19T04:42:48;13.07;;;2.97;;
19903;SDS011;10114;50.970;4.962;2023-02-19T04:45:14;9.90;;;2.50;;
19903;SDS011;10114;50.970;4.962;2023-02-19T04:47:40;11.60;;;2.35;;
19903;SDS011;10114;50.970;4.962;2023-02-19T04:50:06;13.32;;;2.17;;
19903;SDS011;10114;50.970;4.962;2023-02-19T04:52:32;9.95;;;2.13;;
19903;SDS011;10114;50.970;4.962;2023-02-19T04:54:59;16.48;;;2.47;;
19903;SDS011;10114;50.970;4.962;2023-02-19T04:57:25;9.77;;;2.17;;
19903;SDS011;10114;50.970;4.962;2023-02-19T04:59:51;11.52;;;2.10;;
19903;SDS011;10114;50.970;4.962;2023-02-19T05:02:17;6.65;;;1.83;;
19903;SDS011;10114;50.970;4.962;2023-02-19T05:04:43;8.15;;;1.80;;
19903;SDS011;10114;50.970;4.962;2023-02-19T05:07:09;14.98;;;2.55;;
19903;SDS011;10114;50.970;4.962;2023-02-19T05:09:35;19.98;;;2.35;;
19903;SDS011;10114;50.970;4.962;2023-02-19T05:12:01;8.60;;;1.75;;
19903;SDS011;10114;50.970;4.962;2023-02-19T05:14:27;11.30;;;2.65;;
19903;SDS011;10114;50.970;4.962;2023-02-19T05:16:53;10.35;;;1.80;;
19903;SDS011;10114;50.970;4.962;2023-02-19T05:19:19;10.50;;;2.15;;
19903;SDS011;10114;50.970;4.962;2023-02-19T05:21:45;10.60;;;2.13;;
19903;SDS011;10114;50.970;4.962;2023-02-19T05:24:11;11.82;;;2.38;;
19903;SDS011;10114;50.970;4.962;2023-02-19T05:26:37;12.20;;;2.28;;
19903;SDS011;10114;50.970;4.962;2023-02-19T05:29:03;11.60;;;2.38;;
19903;SDS011;10114;50.970;4.962;2023-02-19T05:31:29;10.35;;;2.05;;
19903;SDS011;10114;50.970;4.962;2023-02-19T05:33:57;13.73;;;2.20;;
19903;SDS011;10114;50.970;4.962;2023-02-19T05:36:24;13.07;;;2.42;;
19903;SDS011;10114;50.970;4.962;2023-02-19T05:38:53;16.33;;;2.50;;
19903;SDS011;10114;50.970;4.962;2023-02-19T05:41:24;12.25;;;2.42;;
19903;SDS011;10114;50.970;4.962;2023-02-19T05:43:50;12.52;;;2.08;;
19903;SDS011;10114;50.970;4.962;2023-02-19T05:46:18;15.90;;;2.42;;
19903;SDS011;10114;50.970;4.962;2023-02-19T05:48:45;12.10;;;2.50;;
19903;SDS011;10114;50.970;4.962;2023-02-19T05:51:12;16.30;;;2.70;;
19903;SDS011;10114;50.970;4.962;2023-02-19T05:53:38;7.10;;;1.75;;
19903;SDS011;10114;50.970;4.962;2023-02-19T05:56:15;21.80;;;2.17;;
19903;SDS011;10114;50.970;4.962;2023-02-19T05:58:44;15.02;;;2.53;;
19903;SDS011;10114;50.970;4.962;2023-02-19T06:01:17;14.57;;;2.33;;
19903;SDS011;10114;50.970;4.962;2023-02-19T06:03:43;16.35;;;2.15;;
19903;SDS011;10114;50.970;4.962;2023-02-19T06:06:11;18.10;;;2.13;;
19903;SDS011;10114;50.970;4.962;2023-02-19T06:08:38;17.65;;;2.78;;
19903;SDS011;10114;50.970;4.962;2023-02-19T06:11:04;13.20;;;2.03;;
19903;SDS011;10114;50.970;4.962;2023-02-19T06:13:30;13.45;;;2.35;;
19903;SDS011;10114;50.970;4.962;2023-02-19T06:15:56;8.02;;;1.70;;
19903;SDS011;10114;50.970;4.962;2023-02-19T06:18:22;10.88;;;1.67;;
19903;SDS011;10114;50.970;4.962;2023-02-19T06:20:48;14.15;;;2.38;;
19903;SDS011;10114;50.970;4.962;2023-02-19T06:23:17;15.85;;;2.50;;
19903;SDS011;10114;50.970;4.962;2023-02-19T06:25:43;18.63;;;3.13;;
19903;SDS011;10114;50.970;4.962;2023-02-19T06:28:09;9.07;;;2.20;;
19903;SDS011;10114;50.970;4.962;2023-02-19T06:30:35;20.92;;;3.08;;
19903;SDS011;10114;50.970;4.962;2023-02-19T06:33:01;10.35;;;2.22;;
19903;SDS011;10114;50.970;4.962;2023-02-19T06:35:27;13.00;;;2.55;;
19903;SDS011;10114;50.970;4.962;2023-02-19T06:37:53;13.70;;;2.25;;
19903;SDS011;10114;50.970;4.962;2023-02-19T06:40:19;13.82;;;2.60;;
19903;SDS011;10114;50.970;4.962;2023-02-19T06:42:45;15.57;;;3.10;;
19903;SDS011;10114;50.970;4.962;2023-02-19T06:45:11;14.05;;;2.40;;
19903;SDS011;10114;50.970;4.962;2023-02-19T06:47:38;18.85;;;2.30;;
19903;SDS011;10114;50.970;4.962;2023-02-19T06:50:04;13.93;;;3.03;;
19903;SDS011;10114;50.970;4.962;2023-02-19T06:52:30;14.73;;;2.28;;
19903;SDS011;10114;50.970;4.962;2023-02-19T06:54:56;15.55;;;2.70;;
19903;SDS011;10114;50.970;4.962;2023-02-19T06:57:22;17.27;;;2.72;;
19903;SDS011;10114;50.970;4.962;2023-02-19T06:59:48;14.27;;;2.42;;
19903;SDS011;10114;50.970;4.962;2023-02-19T07:02:14;13.07;;;2.42;;
19903;SDS011;10114;50.970;4.962;2023-02-19T07:04:40;15.32;;;2.42;;
19903;SDS011;10114;50.970;4.962;2023-02-19T07:07:09;14.68;;;3.22;;
19903;SDS011;10114;50.970;4.962;2023-02-19T07:09:35;15.10;;;3.33;;
19903;SDS011;10114;50.970;4.962;2023-02-19T07:12:01;12.45;;;2.10;;
19903;SDS011;10114;50.970;4.962;2023-02-19T07:14:27;10.93;;;2.33;;
19903;SDS011;10114;50.970;4.962;2023-02-19T07:16:53;14.25;;;2.20;;
19903;SDS011;10114;50.970;4.962;2023-02-19T07:19:19;15.55;;;1.88;;
19903;SDS011;10114;50.970;4.962;2023-02-19T07:21:45;14.50;;;2.50;;
19903;SDS011;10114;50.970;4.962;2023-02-19T07:24:11;14.00;;;2.53;;
19903;SDS011;10114;50.970;4.962;2023-02-19T07:26:38;13.50;;;2.60;;
19903;SDS011;10114;50.970;4.962;2023-02-19T07:29:04;16.92;;;3.45;;
19903;SDS011;10114;50.970;4.962;2023-02-19T07:31:30;16.30;;;4.75;;
19903;SDS011;10114;50.970;4.962;2023-02-19T07:33:56;15.77;;;3.55;;
19903;SDS011;10114;50.970;4.962;2023-02-19T07:36:23;20.25;;;2.67;;
19903;SDS011;10114;50.970;4.962;2023-02-19T07:38:56;12.45;;;2.55;;
19903;SDS011;10114;50.970;4.962;2023-02-19T07:41:22;10.80;;;2.38;;
19903;SDS011;10114;50.970;4.962;2023-02-19T07:43:48;16.48;;;2.55;;
19903;SDS011;10114;50.970;4.962;2023-02-19T07:46:14;15.57;;;3.03;;
19903;SDS011;10114;50.970;4.962;2023-02-19T07:48:41;19.63;;;3.00;;
19903;SDS011;10114;50.970;4.962;2023-02-19T07:51:12;12.55;;;2.50;;
19903;SDS011;10114;50.970;4.962;2023-02-19T07:53:40;7.65;;;2.15;;
19903;SDS011;10114;50.970;4.962;2023-02-19T07:56:06;19.40;;;2.65;;
19903;SDS011;10114;50.970;4.962;2023-02-19T07:58:32;17.40;;;2.42;;
19903;SDS011;10114;50.970;4.962;2023-02-19T08:01:05;14.27;;;2.30;;
19903;SDS011;10114;50.970;4.962;2023-02-19T08:03:31;15.95;;;2.80;;
19903;SDS011;10114;50.970;4.962;2023-02-19T08:05:57;11.50;;;1.92;;
19903;SDS011;10114;50.970;4.962;2023-02-19T08:08:23;12.75;;;2.50;;
19903;SDS011;10114;50.970;4.962;2023-02-19T08:10:49;12.00;;;2.22;;
19903;SDS011;10114;50.970;4.962;2023-02-19T08:13:34;11.25;;;2.30;;
19903;SDS011;10114;50.970;4.962;2023-02-19T08:18:27;10.43;;;1.98;;
19903;SDS011;10114;50.970;4.962;2023-02-19T08:20:53;8.57;;;1.88;;
19903;SDS011;10114;50.970;4.962;2023-02-19T08:23:20;15.38;;;2.50;;
19903;SDS011;10114;50.970;4.962;2023-02-19T08:25:46;10.70;;;2.05;;
19903;SDS011;10114;50.970;4.962;2023-02-19T08:28:12;14.93;;;2.67;;
19903;SDS011;10114;50.970;4.962;2023-02-19T08:30:39;12.35;;;2.35;;
19903;SDS011;10114;50.970;4.962;2023-02-19T08:33:06;15.25;;;2.47;;
19903;SDS011;10114;50.970;4.962;2023-02-19T08:35:35;12.68;;;2.17;;
19903;SDS011;10114;50.970;4.962;2023-02-19T08:38:01;15.02;;;2.22;;
19903;SDS011;10114;50.970;4.962;2023-02-19T08:40:28;12.20;;;2.45;;
19903;SDS011;10114;50.970;4.962;2023-02-19T08:42:54;16.67;;;2.45;;
19903;SDS011;10114;50.970;4.962;2023-02-19T08:45:20;17.10;;;2.15;;
19903;SDS011;10114;50.970;4.962;2023-02-19T08:47:48;12.73;;;2.80;;
19903;SDS011;10114;50.970;4.962;2023-02-19T08:50:14;11.30;;;2.63;;
19903;SDS011;10114;50.970;4.962;2023-02-19T08:52:40;13.68;;;2.83;;
19903;SDS011;10114;50.970;4.962;2023-02-19T08:55:06;15.85;;;2.47;;
19903;SDS011;10114;50.970;4.962;2023-02-19T08:57:34;16.27;;;2.85;;
19903;SDS011;10114;50.970;4.962;2023-02-19T09:00:01;16.67;;;3.38;;
19903;SDS011;10114;50.970;4.962;2023-02-19T09:02:28;13.50;;;2.85;;
19903;SDS011;10114;50.970;4.962;2023-02-19T09:04:55;10.93;;;2.65;;
19903;SDS011;10114;50.970;4.962;2023-02-19T09:07:21;14.70;;;3.30;;
19903;SDS011;10114;50.970;4.962;2023-02-19T09:09:47;11.13;;;2.75;;
19903;SDS011;10114;50.970;4.962;2023-02-19T09:12:13;15.93;;;2.60;;
19903;SDS011;10114;50.970;4.962;2023-02-19T09:14:39;12.13;;;2.38;;
19903;SDS011;10114;50.970;4.962;2023-02-19T09:17:06;10.25;;;2.10;;
19903;SDS011;10114;50.970;4.962;2023-02-19T09:19:32;16.70;;;2.35;;
19903;SDS011;10114;50.970;4.962;2023-02-19T09:21:59;12.13;;;2.80;;
19903;SDS011;10114;50.970;4.962;2023-02-19T09:24:25;22.60;;;2.88;;
19903;SDS011;10114;50.970;4.962;2023-02-19T09:26:51;9.95;;;2.78;;
19903;SDS011;10114;50.970;4.962;2023-02-19T09:29:18;19.00;;;2.75;;
19903;SDS011;10114;50.970;4.962;2023-02-19T09:31:45;14.82;;;2.83;;
19903;SDS011;10114;50.970;4.962;2023-02-19T09:34:11;10.85;;;2.30;;
19903;SDS011;10114;50.970;4.962;2023-02-19T09:36:38;11.00;;;2.58;;
19903;SDS011;10114;50.970;4.962;2023-02-19T09:39:04;13.38;;;2.45;;
19903;SDS011;10114;50.970;4.962;2023-02-19T09:41:35;9.65;;;2.42;;
19903;SDS011;10114;50.970;4.962;2023-02-19T09:44:03;10.35;;;2.55;;
19903;SDS011;10114;50.970;4.962;2023-02-19T09:49:05;10.63;;;2.30;;
19903;SDS011;10114;50.970;4.962;2023-02-19T09:51:33;14.88;;;2.95;;
19903;SDS011;10114;50.970;4.962;2023-02-19T09:54:00;17.67;;;3.13;;
19903;SDS011;10114;50.970;4.962;2023-02-19T09:56:28;12.93;;;2.65;;
19903;SDS011;10114;50.970;4.962;2023-02-19T09:58:55;9.00;;;2.25;;
19903;SDS011;10114;50.970;4.962;2023-02-19T10:01:23;15.90;;;2.70;;
19903;SDS011;10114;50.970;4.962;2023-02-19T10:03:51;13.02;;;2.60;;
19903;SDS011;10114;50.970;4.962;2023-02-19T10:06:24;17.75;;;4.10;;
19903;SDS011;10114;50.970;4.962;2023-02-19T10:08:51;11.25;;;2.85;;
19903;SDS011;10114;50.970;4.962;2023-02-19T10:11:18;14.23;;;3.10;;
19903;SDS011;10114;50.970;4.962;2023-02-19T10:16:10;15.82;;;3.70;;
19903;SDS011;10114;50.970;4.962;2023-02-19T10:18:40;10.00;;;3.08;;
19903;SDS011;10114;50.970;4.962;2023-02-19T10:21:09;12.88;;;2.88;;
19903;SDS011;10114;50.970;4.962;2023-02-19T10:23:37;14.82;;;2.67;;
19903;SDS011;10114;50.970;4.962;2023-02-19T10:26:04;14.73;;;3.53;;
19903;SDS011;10114;50.970;4.962;2023-02-19T10:28:32;20.20;;;4.00;;
19903;SDS011;10114;50.970;4.962;2023-02-19T10:30:59;15.73;;;3.10;;
19903;SDS011;10114;50.970;4.962;2023-02-19T10:33:26;9.25;;;2.92;;
19903;SDS011;10114;50.970;4.962;2023-02-19T10:35:56;16.30;;;3.40;;
19903;SDS011;10114;50.970;4.962;2023-02-19T10:38:24;10.35;;;3.03;;
19903;SDS011;10114;50.970;4.962;2023-02-19T10:40:56;18.70;;;3.42;;
19903;SDS011;10114;50.970;4.962;2023-02-19T10:43:27;12.15;;;3.85;;
19903;SDS011;10114;50.970;4.962;2023-02-19T10:45:58;15.88;;;4.53;;
19903;SDS011;10114;50.970;4.962;2023-02-19T10:48:30;18.55;;;4.40;;
19903;SDS011;10114;50.970;4.962;2023-02-19T10:50:58;11.90;;;4.10;;
19903;SDS011;10114;50.970;4.962;2023-02-19T10:56:23;10.13;;;3.88;;
19903;SDS011;10114;50.970;4.962;2023-02-19T10:58:49;14.68;;;4.45;;
19903;SDS011;10114;50.970;4.962;2023-02-19T11:03:43;17.10;;;4.93;;
19903;SDS011;10114;50.970;4.962;2023-02-19T11:06:10;17.17;;;6.05;;
19903;SDS011;10114;50.970;4.962;2023-02-19T11:08:47;10.75;;;5.28;;
19903;SDS011;10114;50.970;4.962;2023-02-19T11:11:33;21.83;;;6.32;;
19903;SDS011;10114;50.970;4.962;2023-02-19T11:14:17;19.63;;;5.63;;
19903;SDS011;10114;50.970;4.962;2023-02-19T11:16:47;14.95;;;5.18;;
19903;SDS011;10114;50.970;4.962;2023-02-19T11:19:23;12.80;;;5.45;;
19903;SDS011;10114;50.970;4.962;2023-02-19T11:21:49;18.25;;;6.10;;
19903;SDS011;10114;50.970;4.962;2023-02-19T11:24:29;15.27;;;5.80;;
19903;SDS011;10114;50.970;4.962;2023-02-19T11:26:58;19.60;;;6.78;;
19903;SDS011;10114;50.970;4.962;2023-02-19T11:29:24;17.77;;;4.70;;
19903;SDS011;10114;50.970;4.962;2023-02-19T11:31:53;14.38;;;4.93;;
19903;SDS011;10114;50.970;4.962;2023-02-19T11:39:53;13.35;;;5.15;;
19903;SDS011;10114;50.970;4.962;2023-02-19T11:48:08;14.50;;;5.38;;
19903;SDS011;10114;50.970;4.962;2023-02-19T12:01:04;17.30;;;5.90;;
19903;SDS011;10114;50.970;4.962;2023-02-19T12:03:37;19.02;;;5.68;;
19903;SDS011;10114;50.970;4.962;2023-02-19T12:06:08;17.55;;;5.45;;
19903;SDS011;10114;50.970;4.962;2023-02-19T12:11:35;14.57;;;5.93;;
19903;SDS011;10114;50.970;4.962;2023-02-19T12:20:17;18.27;;;6.55;;
19903;SDS011;10114;50.970;4.962;2023-02-19T12:24:45;11.52;;;5.22;;
19903;SDS011;10114;50.970;4.962;2023-02-19T12:31:01;12.23;;;5.50;;
19903;SDS011;10114;50.970;4.962;2023-02-19T12:33:56;13.85;;;5.90;;
19903;SDS011;10114;50.970;4.962;2023-02-19T12:43:27;12.60;;;6.70;;
19903;SDS011;10114;50.970;4.962;2023-02-19T12:48:44;13.18;;;6.53;;
19903;SDS011;10114;50.970;4.962;2023-02-19T12:53:55;14.73;;;6.10;;
19903;SDS011;10114;50.970;4.962;2023-02-19T12:56:30;17.35;;;5.57;;
19903;SDS011;10114;50.970;4.962;2023-02-19T13:01:46;15.40;;;5.95;;
19903;SDS011;10114;50.970;4.962;2023-02-19T13:07:00;15.68;;;5.88;;
19903;SDS011;10114;50.970;4.962;2023-02-19T13:09:34;11.52;;;5.28;;
19903;SDS011;10114;50.970;4.962;2023-02-19T13:12:03;14.57;;;5.18;;
19903;SDS011;10114;50.970;4.962;2023-02-19T13:14:36;18.90;;;6.50;;
19903;SDS011;10114;50.970;4.962;2023-02-19T13:17:05;14.80;;;6.00;;
19903;SDS011;10114;50.970;4.962;2023-02-19T13:19:33;13.07;;;6.28;;
19903;SDS011;10114;50.970;4.962;2023-02-19T13:22:17;20.42;;;7.05;;
19903;SDS011;10114;50.970;4.962;2023-02-19T13:25:03;12.73;;;4.85;;
19903;SDS011;10114;50.970;4.962;2023-02-19T13:37:48;13.75;;;6.00;;
19903;SDS011;10114;50.970;4.962;2023-02-19T13:40:31;12.70;;;4.95;;
19903;SDS011;10114;50.970;4.962;2023-02-19T13:42:59;13.25;;;4.65;;
19903;SDS011;10114;50.970;4.962;2023-02-19T13:45:38;10.25;;;4.00;;
19903;SDS011;10114;50.970;4.962;2023-02-19T13:58:55;7.30;;;3.90;;
19903;SDS011;10114;50.970;4.962;2023-02-19T14:04:08;11.35;;;4.07;;
19903;SDS011;10114;50.970;4.962;2023-02-19T14:12:16;8.65;;;3.67;;
19903;SDS011;10114;50.970;4.962;2023-02-19T14:14:46;10.45;;;3.53;;
19903;SDS011;10114;50.970;4.962;2023-02-19T14:17:46;8.85;;;3.58;;
19903;SDS011;10114;50.970;4.962;2023-02-19T14:25:53;9.45;;;4.28;;
19903;SDS011;10114;50.970;4.962;2023-02-19T14:30:28;10.52;;;3.70;;
19903;SDS011;10114;50.970;4.962;2023-02-19T14:32:55;9.68;;;3.55;;
19903;SDS011;10114;50.970;4.962;2023-02-19T14:35:23;5.88;;;2.17;;
19903;SDS011;10114;50.970;4.962;2023-02-19T14:37:50;6.70;;;2.60;;
19903;SDS011;10114;50.970;4.962;2023-02-19T14:40:26;9.15;;;3.60;;
19903;SDS011;10114;50.970;4.962;2023-02-19T14:42:53;11.30;;;3.50;;
19903;SDS011;10114;50.970;4.962;2023-02-19T14:45:20;5.15;;;1.98;;
19903;SDS011;10114;50.970;4.962;2023-02-19T14:47:47;6.47;;;2.38;;
19903;SDS011;10114;50.970;4.962;2023-02-19T14:50:19;5.43;;;2.30;;
19903;SDS011;10114;50.970;4.962;2023-02-19T14:52:50;5.07;;;1.90;;
19903;SDS011;10114;50.970;4.962;2023-02-19T14:55:25;4.00;;;1.92;;
19903;SDS011;10114;50.970;4.962;2023-02-19T14:57:52;4.00;;;0.90;;
19903;SDS011;10114;50.970;4.962;2023-02-19T15:00:23;6.00;;;1.90;;
19903;SDS011;10114;50.970;4.962;2023-02-19T15:02:50;3.63;;;1.77;;
19903;SDS011;10114;50.970;4.962;2023-02-19T15:05:17;5.53;;;1.92;;
19903;SDS011;10114;50.970;4.962;2023-02-19T15:07:43;4.82;;;1.90;;
19903;SDS011;10114;50.970;4.962;2023-02-19T15:10:10;4.47;;;1.85;;
19903;SDS011;10114;50.970;4.962;2023-02-19T15:12:40;5.25;;;1.67;;
19903;SDS011;10114;50.970;4.962;2023-02-19T15:15:14;5.10;;;1.88;;
19903;SDS011;10114;50.970;4.962;2023-02-19T15:17:41;11.07;;;2.22;;
19903;SDS011;10114;50.970;4.962;2023-02-19T15:20:11;4.90;;;2.03;;
19903;SDS011;10114;50.970;4.962;2023-02-19T15:22:39;6.70;;;1.85;;
19903;SDS011;10114;50.970;4.962;2023-02-19T15:25:06;3.70;;;1.70;;
19903;SDS011;10114;50.970;4.962;2023-02-19T15:27:32;5.93;;;1.98;;
19903;SDS011;10114;50.970;4.962;2023-02-19T15:29:59;4.53;;;1.92;;
19903;SDS011;10114;50.970;4.962;2023-02-19T15:32:26;5.50;;;2.00;;
19903;SDS011;10114;50.970;4.962;2023-02-19T15:34:56;6.50;;;2.08;;
19903;SDS011;10114;50.970;4.962;2023-02-19T15:37:26;5.72;;;1.98;;
19903;SDS011;10114;50.970;4.962;2023-02-19T15:39:53;6.70;;;1.85;;
19903;SDS011;10114;50.970;4.962;2023-02-19T15:42:22;7.00;;;2.28;;
19903;SDS011;10114;50.970;4.962;2023-02-19T15:44:57;3.47;;;1.63;;
19903;SDS011;10114;50.970;4.962;2023-02-19T15:47:44;6.18;;;2.50;;
19903;SDS011;10114;50.970;4.962;2023-02-19T15:50:17;7.82;;;2.00;;
19903;SDS011;10114;50.970;4.962;2023-02-19T15:57:41;7.03;;;3.08;;
19903;SDS011;10114;50.970;4.962;2023-02-19T16:00:13;6.97;;;2.10;;
19903;SDS011;10114;50.970;4.962;2023-02-19T16:02:41;6.00;;;2.20;;
19903;SDS011;10114;50.970;4.962;2023-02-19T16:05:15;6.43;;;2.25;;
19903;SDS011;10114;50.970;4.962;2023-02-19T16:08:03;3.95;;;1.73;;
19903;SDS011;10114;50.970;4.962;2023-02-19T16:10:29;4.43;;;1.75;;
19903;SDS011;10114;50.970;4.962;2023-02-19T16:13:00;4.35;;;1.80;;
19903;SDS011;10114;50.970;4.962;2023-02-19T16:15:27;6.13;;;1.98;;
19903;SDS011;10114;50.970;4.962;2023-02-19T16:17:53;5.30;;;1.40;;
19903;SDS011;10114;50.970;4.962;2023-02-19T16:20:23;3.15;;;0.85;;
19903;SDS011;10114;50.970;4.962;2023-02-19T16:22:51;6.80;;;1.98;;
19903;SDS011;10114;50.970;4.962;2023-02-19T16:25:31;6.55;;;2.30;;
19903;SDS011;10114;50.970;4.962;2023-02-19T16:27:58;6.32;;;1.60;;
19903;SDS011;10114;50.970;4.962;2023-02-19T16:30:31;4.10;;;1.40;;
19903;SDS011;10114;50.970;4.962;2023-02-19T16:35:43;4.43;;;1.67;;
19903;SDS011;10114;50.970;4.962;2023-02-19T16:38:15;3.58;;;1.55;;
19903;SDS011;10114;50.970;4.962;2023-02-19T16:45:39;6.75;;;2.08;;
19903;SDS011;10114;50.970;4.962;2023-02-19T16:48:06;4.93;;;1.60;;
19903;SDS011;10114;50.970;4.962;2023-02-19T16:50:32;5.63;;;2.10;;
19903;SDS011;10114;50.970;4.962;2023-02-19T16:52:59;5.13;;;2.25;;
19903;SDS011;10114;50.970;4.962;2023-02-19T16:55:29;6.40;;;1.60;;
19903;SDS011;10114;50.970;4.962;2023-02-19T16:58:01;7.22;;;2.15;;
19903;SDS011;10114;50.970;4.962;2023-02-19T17:00:28;3.30;;;1.40;;
19903;SDS011;10114;50.970;4.962;2023-02-19T17:02:58;6.90;;;2.28;;
19903;SDS011;10114;50.970;4.962;2023-02-19T17:05:26;6.15;;;2.28;;
19903;SDS011;10114;50.970;4.962;2023-02-19T17:07:53;7.35;;;2.20;;
19903;SDS011;10114;50.970;4.962;2023-02-19T17:10:23;3.97;;;1.27;;
19903;SDS011;10114;50.970;4.962;2023-02-19T17:12:50;7.85;;;2.60;;